sensor_id;sensor_type;location;lat;lon;timestamp;P1;durP1;ratioP1;P2;durP2;ratioP2
27265;SDS011;14766;51.380;13.762;2022-11-20T00:01:23;20.23;;;11.48;;
27265;SDS011;14766;51.380;13.762;2022-11-20T00:03:53;21.50;;;13.15;;
27265;SDS011;14766;51.380;13.762;2022-11-20T00:06:23;19.90;;;11.45;;
27265;SDS011;14766;51.380;13.762;2022-11-20T00:08:52;22.98;;;12.10;;
27265;SDS011;14766;51.380;13.762;2022-11-20T00:11:21;21.13;;;12.85;;
27265;SDS011;14766;51.380;13.762;2022-11-20T00:13:51;23.88;;;13.50;;
27265;SDS011;14766;51.380;13.762;2022-11-20T00:16:24;24.73;;;13.95;;
27265;SDS011;14766;51.380;13.762;2022-11-20T00:18:52;25.88;;;13.48;;
27265;SDS011;14766;51.380;13.762;2022-11-20T00:21:20;22.85;;;13.10;;
27265;SDS011;14766;51.380;13.762;2022-11-20T00:23:49;23.38;;;13.60;;
27265;SDS011;14766;51.380;13.762;2022-11-20T00:26:21;24.20;;;13.77;;
27265;SDS011;14766;51.380;13.762;2022-11-20T00:28:53;21.55;;;12.27;;
27265;SDS011;14766;51.380;13.762;2022-11-20T00:31:22;21.85;;;12.57;;
27265;SDS011;14766;51.380;13.762;2022-11-20T00:33:49;19.92;;;12.38;;
27265;SDS011;14766;51.380;13.762;2022-11-20T00:36:18;23.00;;;12.70;;
27265;SDS011;14766;51.380;13.762;2022-11-20T00:38:50;22.75;;;13.43;;
27265;SDS011;14766;51.380;13.762;2022-11-20T00:41:18;26.92;;;14.68;;
27265;SDS011;14766;51.380;13.762;2022-11-20T00:43:46;20.77;;;12.32;;
27265;SDS011;14766;51.380;13.762;2022-11-20T00:46:14;22.33;;;12.85;;
27265;SDS011;14766;51.380;13.762;2022-11-20T00:48:45;21.65;;;12.90;;
27265;SDS011;14766;51.380;13.762;2022-11-20T00:51:14;23.85;;;14.75;;
27265;SDS011;14766;51.380;13.762;2022-11-20T00:53:43;24.63;;;13.43;;
27265;SDS011;14766;51.380;13.762;2022-11-20T00:56:11;24.35;;;13.32;;
27265;SDS011;14766;51.380;13.762;2022-11-20T00:58:42;23.80;;;14.25;;
27265;SDS011;14766;51.380;13.762;2022-11-20T01:01:14;24.20;;;13.45;;
27265;SDS011;14766;51.380;13.762;2022-11-20T01:03:46;22.08;;;12.65;;
27265;SDS011;14766;51.380;13.762;2022-11-20T01:06:16;27.60;;;13.70;;
27265;SDS011;14766;51.380;13.762;2022-11-20T01:08:46;20.65;;;12.40;;
27265;SDS011;14766;51.380;13.762;2022-11-20T01:11:19;21.52;;;12.95;;
27265;SDS011;14766;51.380;13.762;2022-11-20T01:13:48;21.60;;;12.65;;
27265;SDS011;14766;51.380;13.762;2022-11-20T01:16:18;23.05;;;13.15;;
27265;SDS011;14766;51.380;13.762;2022-11-20T01:18:54;20.52;;;11.98;;
27265;SDS011;14766;51.380;13.762;2022-11-20T01:21:24;21.67;;;12.40;;
27265;SDS011;14766;51.380;13.762;2022-11-20T01:23:55;20.42;;;10.85;;
27265;SDS011;14766;51.380;13.762;2022-11-20T01:26:25;22.08;;;12.73;;
27265;SDS011;14766;51.380;13.762;2022-11-20T01:28:57;18.48;;;10.85;;
27265;SDS011;14766;51.380;13.762;2022-11-20T01:33:55;18.23;;;10.75;;
27265;SDS011;14766;51.380;13.762;2022-11-20T01:36:25;23.05;;;12.60;;
27265;SDS011;14766;51.380;13.762;2022-11-20T01:38:54;21.55;;;12.40;;
27265;SDS011;14766;51.380;13.762;2022-11-20T01:41:24;24.30;;;13.10;;
27265;SDS011;14766;51.380;13.762;2022-11-20T01:44:11;23.63;;;13.52;;
27265;SDS011;14766;51.380;13.762;2022-11-20T01:47:03;25.20;;;13.48;;
27265;SDS011;14766;51.380;13.762;2022-11-20T01:49:42;21.38;;;12.88;;
27265;SDS011;14766;51.380;13.762;2022-11-20T01:52:22;21.23;;;12.63;;
27265;SDS011;14766;51.380;13.762;2022-11-20T01:54:54;22.40;;;12.05;;
27265;SDS011;14766;51.380;13.762;2022-11-20T01:57:27;20.45;;;12.00;;
27265;SDS011;14766;51.380;13.762;2022-11-20T01:59:59;23.65;;;13.18;;
27265;SDS011;14766;51.380;13.762;2022-11-20T02:02:41;19.52;;;11.13;;
27265;SDS011;14766;51.380;13.762;2022-11-20T02:08:03;22.55;;;11.93;;
27265;SDS011;14766;51.380;13.762;2022-11-20T02:10:32;22.02;;;11.73;;
27265;SDS011;14766;51.380;13.762;2022-11-20T02:12:59;21.52;;;12.32;;
27265;SDS011;14766;51.380;13.762;2022-11-20T02:15:45;23.52;;;12.77;;
27265;SDS011;14766;51.380;13.762;2022-11-20T02:18:14;21.15;;;12.65;;
27265;SDS011;14766;51.380;13.762;2022-11-20T02:20:44;23.73;;;12.20;;
27265;SDS011;14766;51.380;13.762;2022-11-20T02:23:22;23.08;;;12.10;;
27265;SDS011;14766;51.380;13.762;2022-11-20T02:26:00;20.20;;;11.90;;
27265;SDS011;14766;51.380;13.762;2022-11-20T02:28:29;22.55;;;12.57;;
27265;SDS011;14766;51.380;13.762;2022-11-20T02:30:56;22.92;;;12.43;;
27265;SDS011;14766;51.380;13.762;2022-11-20T02:33:23;21.48;;;12.27;;
27265;SDS011;14766;51.380;13.762;2022-11-20T02:35:50;21.83;;;12.02;;
27265;SDS011;14766;51.380;13.762;2022-11-20T02:38:17;19.63;;;12.07;;
27265;SDS011;14766;51.380;13.762;2022-11-20T02:40:44;21.25;;;12.43;;
27265;SDS011;14766;51.380;13.762;2022-11-20T02:43:15;21.27;;;11.80;;
27265;SDS011;14766;51.380;13.762;2022-11-20T02:45:42;23.83;;;12.85;;
27265;SDS011;14766;51.380;13.762;2022-11-20T02:48:09;26.70;;;13.38;;
27265;SDS011;14766;51.380;13.762;2022-11-20T02:50:37;20.90;;;12.02;;
27265;SDS011;14766;51.380;13.762;2022-11-20T02:53:05;23.30;;;12.52;;
27265;SDS011;14766;51.380;13.762;2022-11-20T02:55:33;23.27;;;12.93;;
27265;SDS011;14766;51.380;13.762;2022-11-20T02:58:00;21.58;;;12.68;;
27265;SDS011;14766;51.380;13.762;2022-11-20T03:00:27;23.85;;;13.10;;
27265;SDS011;14766;51.380;13.762;2022-11-20T03:02:54;23.83;;;12.65;;
27265;SDS011;14766;51.380;13.762;2022-11-20T03:05:21;20.08;;;12.35;;
27265;SDS011;14766;51.380;13.762;2022-11-20T03:07:48;23.30;;;12.30;;
27265;SDS011;14766;51.380;13.762;2022-11-20T03:10:15;22.27;;;12.90;;
27265;SDS011;14766;51.380;13.762;2022-11-20T03:12:42;19.88;;;11.48;;
27265;SDS011;14766;51.380;13.762;2022-11-20T03:15:09;22.95;;;12.20;;
27265;SDS011;14766;51.380;13.762;2022-11-20T03:17:37;27.45;;;13.20;;
27265;SDS011;14766;51.380;13.762;2022-11-20T03:20:04;21.98;;;12.90;;
27265;SDS011;14766;51.380;13.762;2022-11-20T03:22:32;21.63;;;12.52;;
27265;SDS011;14766;51.380;13.762;2022-11-20T03:24:59;21.50;;;11.85;;
27265;SDS011;14766;51.380;13.762;2022-11-20T03:27:26;22.50;;;12.85;;
27265;SDS011;14766;51.380;13.762;2022-11-20T03:29:53;25.90;;;13.02;;
27265;SDS011;14766;51.380;13.762;2022-11-20T03:32:20;24.25;;;13.13;;
27265;SDS011;14766;51.380;13.762;2022-11-20T03:34:47;22.30;;;13.07;;
27265;SDS011;14766;51.380;13.762;2022-11-20T03:37:14;25.55;;;13.60;;
27265;SDS011;14766;51.380;13.762;2022-11-20T03:39:41;26.25;;;13.20;;
27265;SDS011;14766;51.380;13.762;2022-11-20T03:42:08;25.30;;;13.00;;
27265;SDS011;14766;51.380;13.762;2022-11-20T03:45:44;24.92;;;12.75;;
27265;SDS011;14766;51.380;13.762;2022-11-20T03:48:12;23.70;;;12.93;;
27265;SDS011;14766;51.380;13.762;2022-11-20T03:50:40;23.27;;;13.23;;
27265;SDS011;14766;51.380;13.762;2022-11-20T03:53:07;22.15;;;12.82;;
27265;SDS011;14766;51.380;13.762;2022-11-20T03:55:34;23.13;;;12.50;;
27265;SDS011;14766;51.380;13.762;2022-11-20T03:58:01;24.55;;;13.10;;
27265;SDS011;14766;51.380;13.762;2022-11-20T04:00:28;24.08;;;12.75;;
27265;SDS011;14766;51.380;13.762;2022-11-20T04:02:58;23.73;;;12.60;;
27265;SDS011;14766;51.380;13.762;2022-11-20T04:05:26;22.55;;;12.35;;
27265;SDS011;14766;51.380;13.762;2022-11-20T04:07:53;20.90;;;11.85;;
27265;SDS011;14766;51.380;13.762;2022-11-20T04:10:20;22.85;;;12.27;;
27265;SDS011;14766;51.380;13.762;2022-11-20T04:12:47;21.52;;;12.25;;
27265;SDS011;14766;51.380;13.762;2022-11-20T04:15:14;23.20;;;12.85;;
27265;SDS011;14766;51.380;13.762;2022-11-20T04:17:41;23.30;;;12.82;;
27265;SDS011;14766;51.380;13.762;2022-11-20T04:20:08;24.80;;;12.85;;
27265;SDS011;14766;51.380;13.762;2022-11-20T04:22:36;24.50;;;12.77;;
27265;SDS011;14766;51.380;13.762;2022-11-20T04:25:03;23.27;;;12.95;;
27265;SDS011;14766;51.380;13.762;2022-11-20T04:27:30;22.45;;;11.70;;
27265;SDS011;14766;51.380;13.762;2022-11-20T04:29:57;22.30;;;12.35;;
27265;SDS011;14766;51.380;13.762;2022-11-20T04:32:24;23.75;;;12.70;;
27265;SDS011;14766;51.380;13.762;2022-11-20T04:34:51;21.85;;;12.77;;
27265;SDS011;14766;51.380;13.762;2022-11-20T04:37:18;21.13;;;12.10;;
27265;SDS011;14766;51.380;13.762;2022-11-20T04:39:45;22.83;;;12.65;;
27265;SDS011;14766;51.380;13.762;2022-11-20T04:42:12;21.27;;;12.60;;
27265;SDS011;14766;51.380;13.762;2022-11-20T04:44:57;26.38;;;13.90;;
27265;SDS011;14766;51.380;13.762;2022-11-20T04:47:24;24.25;;;12.60;;
27265;SDS011;14766;51.380;13.762;2022-11-20T04:49:51;22.40;;;12.32;;
27265;SDS011;14766;51.380;13.762;2022-11-20T04:52:18;22.17;;;11.52;;
27265;SDS011;14766;51.380;13.762;2022-11-20T04:54:46;23.70;;;13.45;;
27265;SDS011;14766;51.380;13.762;2022-11-20T04:57:13;22.80;;;13.02;;
27265;SDS011;14766;51.380;13.762;2022-11-20T04:59:40;28.17;;;14.23;;
27265;SDS011;14766;51.380;13.762;2022-11-20T05:02:08;24.23;;;13.20;;
27265;SDS011;14766;51.380;13.762;2022-11-20T05:04:36;27.80;;;13.13;;
27265;SDS011;14766;51.380;13.762;2022-11-20T05:07:03;27.45;;;13.15;;
27265;SDS011;14766;51.380;13.762;2022-11-20T05:09:31;21.35;;;11.98;;
27265;SDS011;14766;51.380;13.762;2022-11-20T05:12:00;23.33;;;12.88;;
27265;SDS011;14766;51.380;13.762;2022-11-20T05:14:27;24.90;;;12.80;;
27265;SDS011;14766;51.380;13.762;2022-11-20T05:16:54;26.25;;;13.10;;
27265;SDS011;14766;51.380;13.762;2022-11-20T05:19:21;23.83;;;11.95;;
27265;SDS011;14766;51.380;13.762;2022-11-20T05:21:48;22.35;;;12.57;;
27265;SDS011;14766;51.380;13.762;2022-11-20T05:24:15;25.27;;;13.43;;
27265;SDS011;14766;51.380;13.762;2022-11-20T05:26:42;28.83;;;13.80;;
27265;SDS011;14766;51.380;13.762;2022-11-20T05:29:10;24.15;;;13.23;;
27265;SDS011;14766;51.380;13.762;2022-11-20T05:31:39;23.50;;;13.00;;
27265;SDS011;14766;51.380;13.762;2022-11-20T05:34:07;23.00;;;13.25;;
27265;SDS011;14766;51.380;13.762;2022-11-20T05:36:34;22.88;;;12.30;;
27265;SDS011;14766;51.380;13.762;2022-11-20T05:39:01;26.55;;;14.00;;
27265;SDS011;14766;51.380;13.762;2022-11-20T05:41:28;21.95;;;12.27;;
27265;SDS011;14766;51.380;13.762;2022-11-20T05:43:56;24.42;;;12.65;;
27265;SDS011;14766;51.380;13.762;2022-11-20T05:46:24;23.00;;;12.68;;
27265;SDS011;14766;51.380;13.762;2022-11-20T05:48:54;22.30;;;12.32;;
27265;SDS011;14766;51.380;13.762;2022-11-20T05:51:22;25.15;;;13.35;;
27265;SDS011;14766;51.380;13.762;2022-11-20T05:53:50;24.15;;;12.27;;
27265;SDS011;14766;51.380;13.762;2022-11-20T05:56:18;24.00;;;12.75;;
27265;SDS011;14766;51.380;13.762;2022-11-20T05:58:46;24.60;;;12.73;;
27265;SDS011;14766;51.380;13.762;2022-11-20T06:01:21;22.10;;;12.23;;
27265;SDS011;14766;51.380;13.762;2022-11-20T06:03:50;23.23;;;12.95;;
27265;SDS011;14766;51.380;13.762;2022-11-20T06:06:19;24.10;;;12.85;;
27265;SDS011;14766;51.380;13.762;2022-11-20T06:08:46;24.10;;;12.02;;
27265;SDS011;14766;51.380;13.762;2022-11-20T06:11:14;22.40;;;11.80;;
27265;SDS011;14766;51.380;13.762;2022-11-20T06:13:43;22.17;;;12.38;;
27265;SDS011;14766;51.380;13.762;2022-11-20T06:16:11;26.05;;;12.52;;
27265;SDS011;14766;51.380;13.762;2022-11-20T06:18:40;21.50;;;11.90;;
27265;SDS011;14766;51.380;13.762;2022-11-20T06:23:40;22.65;;;12.00;;
27265;SDS011;14766;51.380;13.762;2022-11-20T06:26:08;22.48;;;12.73;;
27265;SDS011;14766;51.380;13.762;2022-11-20T06:28:37;22.40;;;12.43;;
27265;SDS011;14766;51.380;13.762;2022-11-20T06:31:06;25.58;;;12.90;;
27265;SDS011;14766;51.380;13.762;2022-11-20T06:33:33;22.73;;;12.45;;
27265;SDS011;14766;51.380;13.762;2022-11-20T06:36:01;25.17;;;13.07;;
27265;SDS011;14766;51.380;13.762;2022-11-20T06:38:34;21.23;;;11.85;;
27265;SDS011;14766;51.380;13.762;2022-11-20T06:41:02;21.17;;;11.55;;
27265;SDS011;14766;51.380;13.762;2022-11-20T06:43:30;23.50;;;12.15;;
27265;SDS011;14766;51.380;13.762;2022-11-20T06:45:58;22.30;;;12.57;;
27265;SDS011;14766;51.380;13.762;2022-11-20T06:48:27;25.27;;;13.30;;
27265;SDS011;14766;51.380;13.762;2022-11-20T06:50:55;27.75;;;13.05;;
27265;SDS011;14766;51.380;13.762;2022-11-20T06:53:23;23.38;;;12.20;;
27265;SDS011;14766;51.380;13.762;2022-11-20T06:55:51;23.67;;;12.80;;
27265;SDS011;14766;51.380;13.762;2022-11-20T06:58:20;24.77;;;13.27;;
27265;SDS011;14766;51.380;13.762;2022-11-20T07:00:47;25.90;;;12.95;;
27265;SDS011;14766;51.380;13.762;2022-11-20T07:03:14;24.73;;;13.73;;
27265;SDS011;14766;51.380;13.762;2022-11-20T07:05:42;20.70;;;11.73;;
27265;SDS011;14766;51.380;13.762;2022-11-20T07:08:11;28.85;;;13.95;;
27265;SDS011;14766;51.380;13.762;2022-11-20T07:10:38;25.35;;;13.25;;
27265;SDS011;14766;51.380;13.762;2022-11-20T07:13:05;30.42;;;15.63;;
27265;SDS011;14766;51.380;13.762;2022-11-20T07:15:33;31.52;;;16.95;;
27265;SDS011;14766;51.380;13.762;2022-11-20T07:18:00;37.72;;;20.45;;
27265;SDS011;14766;51.380;13.762;2022-11-20T07:20:29;58.90;;;28.17;;
27265;SDS011;14766;51.380;13.762;2022-11-20T07:22:58;42.75;;;22.50;;
27265;SDS011;14766;51.380;13.762;2022-11-20T07:25:25;37.38;;;19.08;;
27265;SDS011;14766;51.380;13.762;2022-11-20T07:27:57;30.23;;;16.80;;
27265;SDS011;14766;51.380;13.762;2022-11-20T07:30:25;29.50;;;16.48;;
27265;SDS011;14766;51.380;13.762;2022-11-20T07:32:54;30.30;;;16.45;;
27265;SDS011;14766;51.380;13.762;2022-11-20T07:35:24;23.13;;;15.15;;
27265;SDS011;14766;51.380;13.762;2022-11-20T07:37:52;26.58;;;16.10;;
27265;SDS011;14766;51.380;13.762;2022-11-20T07:40:19;25.83;;;15.60;;
27265;SDS011;14766;51.380;13.762;2022-11-20T07:42:47;29.15;;;16.48;;
27265;SDS011;14766;51.380;13.762;2022-11-20T07:45:16;27.67;;;16.25;;
27265;SDS011;14766;51.380;13.762;2022-11-20T07:47:44;25.35;;;15.43;;
27265;SDS011;14766;51.380;13.762;2022-11-20T07:50:12;23.42;;;15.02;;
27265;SDS011;14766;51.380;13.762;2022-11-20T07:52:39;25.70;;;15.55;;
27265;SDS011;14766;51.380;13.762;2022-11-20T07:55:07;21.30;;;14.73;;
27265;SDS011;14766;51.380;13.762;2022-11-20T07:57:36;24.98;;;15.93;;
27265;SDS011;14766;51.380;13.762;2022-11-20T08:00:03;22.85;;;14.95;;
27265;SDS011;14766;51.380;13.762;2022-11-20T08:02:37;25.52;;;16.63;;
27265;SDS011;14766;51.380;13.762;2022-11-20T08:05:05;22.67;;;15.85;;
27265;SDS011;14766;51.380;13.762;2022-11-20T08:07:39;23.83;;;16.60;;
27265;SDS011;14766;51.380;13.762;2022-11-20T08:10:09;22.63;;;16.42;;
27265;SDS011;14766;51.380;13.762;2022-11-20T08:12:45;24.75;;;15.95;;
27265;SDS011;14766;51.380;13.762;2022-11-20T08:15:32;24.63;;;16.58;;
27265;SDS011;14766;51.380;13.762;2022-11-20T08:18:00;25.00;;;15.45;;
27265;SDS011;14766;51.380;13.762;2022-11-20T08:20:48;22.10;;;15.90;;
27265;SDS011;14766;51.380;13.762;2022-11-20T08:23:16;24.45;;;17.00;;
27265;SDS011;14766;51.380;13.762;2022-11-20T08:25:43;25.05;;;16.55;;
27265;SDS011;14766;51.380;13.762;2022-11-20T08:28:15;26.17;;;16.67;;
27265;SDS011;14766;51.380;13.762;2022-11-20T08:30:48;23.45;;;15.80;;
27265;SDS011;14766;51.380;13.762;2022-11-20T08:33:17;25.00;;;16.73;;
27265;SDS011;14766;51.380;13.762;2022-11-20T08:35:44;27.02;;;16.98;;
27265;SDS011;14766;51.380;13.762;2022-11-20T08:38:12;25.85;;;16.35;;
27265;SDS011;14766;51.380;13.762;2022-11-20T08:40:39;28.90;;;16.40;;
27265;SDS011;14766;51.380;13.762;2022-11-20T08:43:06;23.67;;;16.25;;
27265;SDS011;14766;51.380;13.762;2022-11-20T08:45:33;21.65;;;15.02;;
27265;SDS011;14766;51.380;13.762;2022-11-20T08:48:02;21.65;;;15.20;;
27265;SDS011;14766;51.380;13.762;2022-11-20T08:50:30;23.02;;;15.52;;
27265;SDS011;14766;51.380;13.762;2022-11-20T08:53:05;20.58;;;15.18;;
27265;SDS011;14766;51.380;13.762;2022-11-20T08:55:32;21.73;;;14.82;;
27265;SDS011;14766;51.380;13.762;2022-11-20T08:58:05;23.17;;;15.98;;
27265;SDS011;14766;51.380;13.762;2022-11-20T09:00:33;21.35;;;15.45;;
27265;SDS011;14766;51.380;13.762;2022-11-20T09:03:01;21.65;;;14.25;;
27265;SDS011;14766;51.380;13.762;2022-11-20T09:05:28;23.65;;;15.60;;
27265;SDS011;14766;51.380;13.762;2022-11-20T09:07:56;24.17;;;16.08;;
27265;SDS011;14766;51.380;13.762;2022-11-20T09:10:24;24.08;;;16.25;;
27265;SDS011;14766;51.380;13.762;2022-11-20T09:12:52;23.02;;;15.10;;
27265;SDS011;14766;51.380;13.762;2022-11-20T09:15:20;20.42;;;15.13;;
27265;SDS011;14766;51.380;13.762;2022-11-20T09:17:54;20.63;;;14.02;;
27265;SDS011;14766;51.380;13.762;2022-11-20T09:20:22;20.10;;;14.52;;
27265;SDS011;14766;51.380;13.762;2022-11-20T09:22:51;22.42;;;15.05;;
27265;SDS011;14766;51.380;13.762;2022-11-20T09:25:19;21.35;;;14.75;;
27265;SDS011;14766;51.380;13.762;2022-11-20T09:27:46;21.05;;;15.00;;
27265;SDS011;14766;51.380;13.762;2022-11-20T09:30:14;20.60;;;14.13;;
27265;SDS011;14766;51.380;13.762;2022-11-20T09:32:42;21.92;;;15.55;;
27265;SDS011;14766;51.380;13.762;2022-11-20T09:35:09;19.65;;;14.23;;
27265;SDS011;14766;51.380;13.762;2022-11-20T09:37:37;17.77;;;13.02;;
27265;SDS011;14766;51.380;13.762;2022-11-20T09:40:05;20.85;;;13.50;;
27265;SDS011;14766;51.380;13.762;2022-11-20T09:48:15;21.67;;;15.07;;
27265;SDS011;14766;51.380;13.762;2022-11-20T09:51:11;24.65;;;15.93;;
27265;SDS011;14766;51.380;13.762;2022-11-20T09:53:58;22.75;;;13.98;;
27265;SDS011;14766;51.380;13.762;2022-11-20T09:56:41;18.25;;;12.73;;
27265;SDS011;14766;51.380;13.762;2022-11-20T09:59:25;20.33;;;13.02;;
27265;SDS011;14766;51.380;13.762;2022-11-20T10:01:54;24.67;;;15.45;;
27265;SDS011;14766;51.380;13.762;2022-11-20T10:04:24;22.35;;;14.80;;
27265;SDS011;14766;51.380;13.762;2022-11-20T10:07:11;26.40;;;16.75;;
27265;SDS011;14766;51.380;13.762;2022-11-20T10:09:59;33.97;;;19.90;;
27265;SDS011;14766;51.380;13.762;2022-11-20T10:28:40;18.95;;;11.48;;
27265;SDS011;14766;51.380;13.762;2022-11-20T10:37:31;18.10;;;11.70;;
27265;SDS011;14766;51.380;13.762;2022-11-20T10:42:30;17.27;;;11.60;;
27265;SDS011;14766;51.380;13.762;2022-11-20T10:45:49;15.30;;;10.45;;
27265;SDS011;14766;51.380;13.762;2022-11-20T10:50:49;13.68;;;9.18;;
27265;SDS011;14766;51.380;13.762;2022-11-20T10:56:27;13.57;;;9.10;;
27265;SDS011;14766;51.380;13.762;2022-11-20T11:05:01;14.02;;;9.82;;
27265;SDS011;14766;51.380;13.762;2022-11-20T11:07:40;13.55;;;9.15;;
27265;SDS011;14766;51.380;13.762;2022-11-20T11:12:53;16.77;;;11.35;;
27265;SDS011;14766;51.380;13.762;2022-11-20T11:15:39;17.52;;;10.88;;
27265;SDS011;14766;51.380;13.762;2022-11-20T11:18:10;14.65;;;10.00;;
27265;SDS011;14766;51.380;13.762;2022-11-20T11:20:39;16.58;;;9.95;;
27265;SDS011;14766;51.380;13.762;2022-11-20T11:23:34;15.00;;;10.57;;
27265;SDS011;14766;51.380;13.762;2022-11-20T11:26:05;15.98;;;9.75;;
27265;SDS011;14766;51.380;13.762;2022-11-20T11:28:57;17.05;;;11.10;;
27265;SDS011;14766;51.380;13.762;2022-11-20T11:31:26;13.82;;;9.27;;
27265;SDS011;14766;51.380;13.762;2022-11-20T11:34:12;13.60;;;8.70;;
27265;SDS011;14766;51.380;13.762;2022-11-20T11:36:39;15.38;;;9.70;;
27265;SDS011;14766;51.380;13.762;2022-11-20T11:39:11;13.40;;;8.98;;
27265;SDS011;14766;51.380;13.762;2022-11-20T11:41:44;17.63;;;8.82;;
27265;SDS011;14766;51.380;13.762;2022-11-20T11:47:00;15.25;;;9.13;;
27265;SDS011;14766;51.380;13.762;2022-11-20T11:49:30;14.07;;;9.38;;
27265;SDS011;14766;51.380;13.762;2022-11-20T12:02:37;12.30;;;8.18;;
27265;SDS011;14766;51.380;13.762;2022-11-20T12:10:45;13.95;;;9.05;;
27265;SDS011;14766;51.380;13.762;2022-11-20T12:16:07;15.93;;;9.98;;
27265;SDS011;14766;51.380;13.762;2022-11-20T12:18:38;14.05;;;9.18;;
27265;SDS011;14766;51.380;13.762;2022-11-20T12:21:17;14.10;;;9.52;;
27265;SDS011;14766;51.380;13.762;2022-11-20T12:23:54;15.32;;;8.43;;
27265;SDS011;14766;51.380;13.762;2022-11-20T12:26:43;13.55;;;9.15;;
27265;SDS011;14766;51.380;13.762;2022-11-20T12:39:02;17.73;;;11.23;;
27265;SDS011;14766;51.380;13.762;2022-11-20T12:41:05;17.75;;;11.00;;
27265;SDS011;14766;51.380;13.762;2022-11-20T12:53:05;18.70;;;11.25;;
27265;SDS011;14766;51.380;13.762;2022-11-20T12:55:48;20.30;;;11.65;;
27265;SDS011;14766;51.380;13.762;2022-11-20T12:58:40;21.83;;;12.73;;
27265;SDS011;14766;51.380;13.762;2022-11-20T13:06:44;21.45;;;13.75;;
27265;SDS011;14766;51.380;13.762;2022-11-20T13:09:13;19.98;;;12.73;;
27265;SDS011;14766;51.380;13.762;2022-11-20T13:14:24;21.25;;;13.18;;
27265;SDS011;14766;51.380;13.762;2022-11-20T13:19:54;23.08;;;13.98;;
27265;SDS011;14766;51.380;13.762;2022-11-20T13:22:28;21.05;;;13.02;;
27265;SDS011;14766;51.380;13.762;2022-11-20T13:25:33;21.65;;;12.90;;
27265;SDS011;14766;51.380;13.762;2022-11-20T13:30:53;21.83;;;12.77;;
27265;SDS011;14766;51.380;13.762;2022-11-20T13:33:34;21.42;;;13.15;;
27265;SDS011;14766;51.380;13.762;2022-11-20T13:36:05;22.38;;;12.27;;
27265;SDS011;14766;51.380;13.762;2022-11-20T13:38:47;20.67;;;12.98;;
27265;SDS011;14766;51.380;13.762;2022-11-20T13:44:04;21.08;;;12.68;;
27265;SDS011;14766;51.380;13.762;2022-11-20T13:46:41;22.67;;;13.82;;
27265;SDS011;14766;51.380;13.762;2022-11-20T14:00:14;21.48;;;12.70;;
27265;SDS011;14766;51.380;13.762;2022-11-20T14:02:44;20.73;;;12.57;;
27265;SDS011;14766;51.380;13.762;2022-11-20T14:05:22;21.27;;;12.10;;
27265;SDS011;14766;51.380;13.762;2022-11-20T14:07:52;22.42;;;13.02;;
27265;SDS011;14766;51.380;13.762;2022-11-20T14:10:21;24.73;;;13.50;;
27265;SDS011;14766;51.380;13.762;2022-11-20T14:12:58;28.67;;;15.77;;
27265;SDS011;14766;51.380;13.762;2022-11-20T14:15:35;21.52;;;11.90;;
27265;SDS011;14766;51.380;13.762;2022-11-20T14:18:11;22.98;;;13.50;;
27265;SDS011;14766;51.380;13.762;2022-11-20T14:20:41;23.40;;;13.45;;
27265;SDS011;14766;51.380;13.762;2022-11-20T14:23:10;19.20;;;11.35;;
27265;SDS011;14766;51.380;13.762;2022-11-20T14:25:41;21.27;;;11.88;;
27265;SDS011;14766;51.380;13.762;2022-11-20T14:28:11;22.10;;;12.65;;
27265;SDS011;14766;51.380;13.762;2022-11-20T14:30:51;20.95;;;11.98;;
27265;SDS011;14766;51.380;13.762;2022-11-20T14:33:19;22.65;;;11.95;;
27265;SDS011;14766;51.380;13.762;2022-11-20T14:35:50;24.63;;;12.30;;
27265;SDS011;14766;51.380;13.762;2022-11-20T14:38:26;28.20;;;14.98;;
27265;SDS011;14766;51.380;13.762;2022-11-20T14:41:05;28.35;;;16.13;;
27265;SDS011;14766;51.380;13.762;2022-11-20T14:43:34;28.48;;;15.73;;
27265;SDS011;14766;51.380;13.762;2022-11-20T14:46:05;25.88;;;14.88;;
27265;SDS011;14766;51.380;13.762;2022-11-20T14:48:45;22.27;;;13.07;;
27265;SDS011;14766;51.380;13.762;2022-11-20T14:51:28;21.35;;;12.52;;
27265;SDS011;14766;51.380;13.762;2022-11-20T14:53:56;21.50;;;13.00;;
27265;SDS011;14766;51.380;13.762;2022-11-20T14:56:35;21.98;;;13.25;;
27265;SDS011;14766;51.380;13.762;2022-11-20T14:59:02;22.45;;;13.05;;
27265;SDS011;14766;51.380;13.762;2022-11-20T15:01:31;19.35;;;12.18;;
27265;SDS011;14766;51.380;13.762;2022-11-20T15:04:08;24.65;;;14.40;;
27265;SDS011;14766;51.380;13.762;2022-11-20T15:06:37;25.77;;;13.48;;
27265;SDS011;14766;51.380;13.762;2022-11-20T15:09:15;21.55;;;13.85;;
27265;SDS011;14766;51.380;13.762;2022-11-20T15:11:51;19.02;;;11.52;;
27265;SDS011;14766;51.380;13.762;2022-11-20T15:14:23;15.95;;;9.95;;
27265;SDS011;14766;51.380;13.762;2022-11-20T15:16:51;15.35;;;9.23;;
27265;SDS011;14766;51.380;13.762;2022-11-20T15:19:23;15.77;;;10.07;;
27265;SDS011;14766;51.380;13.762;2022-11-20T15:21:51;19.83;;;11.13;;
27265;SDS011;14766;51.380;13.762;2022-11-20T15:24:18;28.08;;;14.30;;
27265;SDS011;14766;51.380;13.762;2022-11-20T15:26:47;26.25;;;14.68;;
27265;SDS011;14766;51.380;13.762;2022-11-20T15:29:15;21.13;;;12.82;;
27265;SDS011;14766;51.380;13.762;2022-11-20T15:31:45;20.77;;;12.82;;
27265;SDS011;14766;51.380;13.762;2022-11-20T15:34:12;20.75;;;11.05;;
27265;SDS011;14766;51.380;13.762;2022-11-20T15:36:42;16.60;;;9.77;;
27265;SDS011;14766;51.380;13.762;2022-11-20T15:39:09;15.63;;;9.57;;
27265;SDS011;14766;51.380;13.762;2022-11-20T15:41:38;15.27;;;9.10;;
27265;SDS011;14766;51.380;13.762;2022-11-20T15:44:05;14.85;;;10.13;;
27265;SDS011;14766;51.380;13.762;2022-11-20T15:46:33;16.75;;;10.07;;
27265;SDS011;14766;51.380;13.762;2022-11-20T15:49:06;14.63;;;9.35;;
27265;SDS011;14766;51.380;13.762;2022-11-20T15:51:39;14.75;;;8.77;;
27265;SDS011;14766;51.380;13.762;2022-11-20T15:56:41;14.43;;;10.20;;
27265;SDS011;14766;51.380;13.762;2022-11-20T15:59:08;15.90;;;9.98;;
27265;SDS011;14766;51.380;13.762;2022-11-20T16:01:35;14.52;;;8.82;;
27265;SDS011;14766;51.380;13.762;2022-11-20T16:04:04;16.10;;;9.30;;
27265;SDS011;14766;51.380;13.762;2022-11-20T16:06:35;13.85;;;8.63;;
27265;SDS011;14766;51.380;13.762;2022-11-20T16:09:02;13.73;;;8.07;;
27265;SDS011;14766;51.380;13.762;2022-11-20T16:11:29;14.35;;;8.25;;
27265;SDS011;14766;51.380;13.762;2022-11-20T16:13:56;17.83;;;9.50;;
27265;SDS011;14766;51.380;13.762;2022-11-20T16:16:41;19.23;;;10.82;;
27265;SDS011;14766;51.380;13.762;2022-11-20T16:19:10;17.05;;;10.23;;
27265;SDS011;14766;51.380;13.762;2022-11-20T16:21:38;18.98;;;10.77;;
27265;SDS011;14766;51.380;13.762;2022-11-20T16:24:08;20.17;;;12.30;;
27265;SDS011;14766;51.380;13.762;2022-11-20T16:26:38;19.30;;;12.45;;
27265;SDS011;14766;51.380;13.762;2022-11-20T16:29:08;21.45;;;11.43;;
27265;SDS011;14766;51.380;13.762;2022-11-20T16:31:36;20.83;;;12.25;;
27265;SDS011;14766;51.380;13.762;2022-11-20T16:34:04;19.08;;;10.90;;
27265;SDS011;14766;51.380;13.762;2022-11-20T16:36:49;19.67;;;11.20;;